Time;durP1;ratioP1;P1;durP2;ratioP2;P2;SDS_P1;SDS_P2;PMS_P1;PMS_P2;Temp;Humidity;BMP_temperature;BMP_pressure;BME280_temperature;BME280_humidity;BME280_pressure;Samples;Min_cycle;Max_cycle;Signal;HPM_P1;HPM_P2
2021/08/14 00:00:53;;;;;;;14.40;10.35;;;;;;;18.03;66.60;100698.43;1815246;79;27378;-63
2021/08/14 00:03:19;;;;;;;12.85;9.93;;;;;;;17.99;66.49;100693.42;1815246;79;25734;-63
2021/08/14 00:05:46;;;;;;;13.25;9.48;;;;;;;18.00;66.58;100691.50;1815216;79;25663;-63
2021/08/14 00:08:12;;;;;;;12.80;10.55;;;;;;;17.97;66.65;100696.30;1815242;79;25750;-64
2021/08/14 00:10:39;;;;;;;11.35;9.68;;;;;;;17.95;66.71;100691.75;1789972;79;25700;-63
2021/08/14 00:13:05;;;;;;;15.18;10.25;;;;;;;17.94;66.84;100690.94;1815213;79;27375;-64
2021/08/14 00:15:32;;;;;;;14.13;9.93;;;;;;;17.92;66.78;100689.13;1815234;79;25702;-63
2021/08/14 00:17:58;;;;;;;15.28;9.95;;;;;;;17.89;66.87;100685.71;1815241;79;25795;-64
2021/08/14 00:20:25;;;;;;;13.78;9.60;;;;;;;17.86;67.09;100678.16;1815185;79;27793;-64
2021/08/14 00:22:52;;;;;;;13.05;10.35;;;;;;;17.84;67.10;100677.17;1815406;79;25280;-63
2021/08/14 00:25:18;;;;;;;12.07;8.95;;;;;;;17.80;67.00;100671.37;1808595;78;27306;-63
2021/08/14 00:27:44;;;;;;;16.48;10.35;;;;;;;17.78;67.31;100670.34;1801089;79;25680;-63
2021/08/14 00:30:11;;;;;;;14.87;9.80;;;;;;;17.75;67.35;100662.83;1801345;79;25636;-63
2021/08/14 00:32:38;;;;;;;16.90;9.95;;;;;;;17.72;67.20;100658.05;1801246;79;25653;-63
2021/08/14 00:35:05;;;;;;;11.08;9.43;;;;;;;17.71;67.67;100655.11;1801344;79;26126;-63
2021/08/14 00:37:32;;;;;;;13.65;9.95;;;;;;;17.69;67.46;100653.27;1801260;79;27260;-63
2021/08/14 00:39:58;;;;;;;13.70;9.90;;;;;;;17.69;67.57;100659.55;1801201;79;25672;-63
2021/08/14 00:42:24;;;;;;;13.75;9.28;;;;;;;17.66;67.68;100657.52;1801229;79;25771;-63
2021/08/14 00:44:51;;;;;;;10.70;9.18;;;;;;;17.65;67.69;100648.28;1801165;79;25704;-63
2021/08/14 00:47:21;;;;;;;12.30;9.00;;;;;;;17.63;67.78;100653.31;1801398;79;25787;-63
2021/08/14 00:49:47;;;;;;;17.45;9.58;;;;;;;17.61;67.77;100660.50;1800857;79;27348;-63
2021/08/14 00:52:13;;;;;;;14.30;9.53;;;;;;;17.58;67.73;100659.81;1801157;79;25673;-64
2021/08/14 00:54:40;;;;;;;14.53;9.78;;;;;;;17.57;67.88;100656.88;1801265;79;25698;-64
2021/08/14 00:57:07;;;;;;;10.72;9.20;;;;;;;17.56;68.17;100648.44;1769923;79;26233;-63
2021/08/14 00:59:34;;;;;;;11.78;9.80;;;;;;;17.53;68.02;100654.02;1801311;79;26412;-63
2021/08/14 01:02:05;;;;;;;11.53;9.58;;;;;;;17.52;68.18;100657.91;1801304;79;28048;-63
2021/08/14 01:04:33;;;;;;;13.38;8.60;;;;;;;17.50;68.13;100649.27;1801167;79;25786;-63
2021/08/14 01:07:00;;;;;;;14.70;9.70;;;;;;;17.50;68.15;100644.34;1801465;79;26059;-63
2021/08/14 01:09:30;;;;;;;12.90;8.93;;;;;;;17.49;68.50;100645.50;1801200;79;25736;-63
2021/08/14 01:12:04;;;;;;;12.63;9.55;;;;;;;17.47;68.31;100645.03;1801298;79;25723;-63
2021/08/14 01:14:34;;;;;;;10.08;8.63;;;;;;;17.46;68.47;100642.09;1801379;79;27497;-63
2021/08/14 01:17:02;;;;;;;13.68;9.55;;;;;;;17.46;68.47;100640.72;1801150;79;25746;-63
2021/08/14 01:19:29;;;;;;;12.95;10.08;;;;;;;17.44;68.42;100633.45;1801487;79;25676;-63
2021/08/14 01:21:56;;;;;;;11.73;9.08;;;;;;;17.43;68.53;100630.48;1801367;79;26002;-61
2021/08/14 01:24:23;;;;;;;12.23;8.80;;;;;;;17.41;68.69;100621.25;1801215;79;25712;-61
2021/08/14 01:26:50;;;;;;;10.75;8.80;;;;;;;17.41;68.62;100622.61;1759950;80;27250;-61
2021/08/14 01:29:16;;;;;;;13.75;8.60;;;;;;;17.41;68.75;100626.72;1736389;82;25991;-61
2021/08/14 01:31:44;;;;;;;12.30;8.90;;;;;;;17.39;68.82;100624.13;1736435;81;25719;-64
2021/08/14 01:34:12;;;;;;;9.93;8.45;;;;;;;17.39;68.78;100626.86;1735772;82;25655;-63
2021/08/14 01:36:38;;;;;;;10.30;8.43;;;;;;;17.39;68.78;100627.64;1736893;81;25651;-63
2021/08/14 01:39:07;;;;;;;12.55;8.55;;;;;;;17.38;68.78;100624.67;1736360;82;27400;-63
2021/08/14 01:41:33;;;;;;;9.73;8.48;;;;;;;17.39;68.91;100623.55;1736358;82;25669;-63
2021/08/14 01:44:08;;;;;;;12.23;8.93;;;;;;;17.39;68.94;100616.70;1736241;82;25728;-61
2021/08/14 01:46:39;;;;;;;12.05;7.92;;;;;;;17.42;68.88;100623.41;1736342;82;26375;-61
2021/08/14 01:49:05;;;;;;;10.72;8.60;;;;;;;17.42;68.87;100617.38;1735821;82;25778;-62
2021/08/14 01:51:31;;;;;;;10.78;8.13;;;;;;;17.45;68.90;100615.88;1717417;82;27345;-61
2021/08/14 01:54:00;;;;;;;11.12;8.23;;;;;;;17.44;68.89;100610.98;1736213;82;25782;-61
2021/08/14 01:56:28;;;;;;;10.13;9.00;;;;;;;17.45;68.92;100605.76;1736630;81;25682;-61
2021/08/14 01:58:55;;;;;;;10.35;8.80;;;;;;;17.45;68.93;100603.02;1736411;82;25687;-61
2021/08/14 02:01:22;;;;;;;10.38;8.18;;;;;;;17.45;68.95;100596.73;1735814;82;25691;-61
2021/08/14 02:03:50;;;;;;;10.23;8.10;;;;;;;17.45;68.93;100593.45;1736428;82;27481;-62
2021/08/14 02:06:19;;;;;;;11.63;8.95;;;;;;;17.47;68.85;100590.34;1735744;81;25766;-63
2021/08/14 02:08:46;;;;;;;12.73;8.60;;;;;;;17.46;68.95;100592.29;1736079;82;25703;-62
2021/08/14 02:11:19;;;;;;;10.13;8.38;;;;;;;17.47;68.94;100590.34;1736345;82;25863;-62
2021/08/14 02:13:50;;;;;;;11.65;8.93;;;;;;;17.46;68.90;100586.83;1736349;82;25810;-62
2021/08/14 02:16:17;;;;;;;13.72;8.53;;;;;;;17.47;68.92;100593.89;1736432;82;27993;-62
2021/08/14 02:18:44;;;;;;;10.68;8.50;;;;;;;17.46;68.93;100584.09;1736279;82;27224;-62
2021/08/14 02:21:11;;;;;;;12.35;9.25;;;;;;;17.46;68.96;100573.15;1736384;82;25661;-62
2021/08/14 02:23:38;;;;;;;13.60;8.85;;;;;;;17.45;68.85;100581.14;1736381;82;25902;-62
2021/08/14 02:26:06;;;;;;;16.20;8.75;;;;;;;17.47;68.84;100572.56;1762259;80;26353;-62
2021/08/14 02:28:34;;;;;;;11.68;8.63;;;;;;;17.46;69.00;100571.78;1789670;80;27331;-61
2021/08/14 02:31:02;;;;;;;12.80;9.08;;;;;;;17.44;69.02;100570.55;1789577;80;25676;-61
2021/08/14 02:33:30;;;;;;;10.80;9.03;;;;;;;17.40;69.30;100562.81;1789936;80;26292;-61
2021/08/14 02:35:57;;;;;;;10.58;8.78;;;;;;;17.40;69.30;100562.81;1789787;80;25700;-61
2021/08/14 02:38:23;;;;;;;13.90;8.58;;;;;;;17.38;69.23;100563.16;1789840;80;25705;-61
2021/08/14 02:40:50;;;;;;;14.75;8.55;;;;;;;17.35;69.32;100567.98;1789866;80;27438;-61
2021/08/14 02:43:17;;;;;;;11.20;8.58;;;;;;;17.32;69.38;100565.35;1789430;80;25865;-61
2021/08/14 02:45:45;;;;;;;11.97;8.58;;;;;;;17.28;69.48;100560.92;1788994;80;25790;-61
2021/08/14 02:48:13;;;;;;;13.22;8.68;;;;;;;17.26;69.52;100562.63;1789480;80;25806;-61
2021/08/14 02:50:42;;;;;;;17.17;8.28;;;;;;;17.25;69.53;100559.69;1789364;80;25629;-61
2021/08/14 02:53:09;;;;;;;12.25;8.93;;;;;;;17.26;69.74;100561.84;1789569;80;33189;-61
2021/08/14 02:55:35;;;;;;;11.83;9.33;;;;;;;17.23;69.66;100560.62;1789418;80;25831;-62
2021/08/14 02:58:05;;;;;;;11.55;8.35;;;;;;;17.22;69.79;100560.38;1789698;80;25927;-61
2021/08/14 03:00:32;;;;;;;11.38;8.78;;;;;;;17.22;69.74;100562.33;1789731;80;25808;-62
2021/08/14 03:02:58;;;;;;;10.32;8.88;;;;;;;17.18;70.09;100557.55;1789861;80;25726;-61
2021/08/14 03:05:25;;;;;;;10.80;9.10;;;;;;;17.17;70.03;100555.16;1789711;80;28080;-62
2021/08/14 03:07:51;;;;;;;12.70;8.83;;;;;;;17.15;70.12;100558.23;1759018;80;27222;-61
2021/08/14 03:10:18;;;;;;;11.70;8.68;;;;;;;17.12;70.16;100554.83;1789784;80;25637;-61
2021/08/14 03:12:44;;;;;;;11.22;8.45;;;;;;;17.12;70.25;100558.14;1789790;80;26394;-61
2021/08/14 03:15:12;;;;;;;14.43;8.73;;;;;;;17.10;70.34;100565.31;1789970;80;25739;-61
2021/08/14 03:17:39;;;;;;;15.08;8.83;;;;;;;17.08;70.34;100559.41;1789833;80;27357;-62
2021/08/14 03:20:08;;;;;;;14.75;8.55;;;;;;;17.11;70.29;100564.73;1789704;80;25831;-62
2021/08/14 03:22:35;;;;;;;12.80;8.78;;;;;;;17.10;70.33;100556.33;1789966;80;32504;-62
2021/08/14 03:25:02;;;;;;;13.48;9.30;;;;;;;17.10;70.36;100561.22;1789700;80;26330;-62
2021/08/14 03:27:29;;;;;;;11.95;9.28;;;;;;;17.08;70.51;100551.20;1779842;80;25742;-61
2021/08/14 03:29:56;;;;;;;10.75;8.95;;;;;;;17.08;70.87;100556.67;1779249;80;27136;-61
2021/08/14 03:32:22;;;;;;;10.25;8.38;;;;;;;17.06;70.57;100555.41;1779015;80;25732;-62
2021/08/14 03:34:48;;;;;;;11.95;8.73;;;;;;;17.06;70.76;100550.77;1779221;80;25797;-61
2021/08/14 03:37:15;;;;;;;15.15;8.93;;;;;;;17.04;70.73;100547.56;1779202;80;25756;-61
2021/08/14 03:39:41;;;;;;;12.50;8.70;;;;;;;17.04;70.94;100553.02;1779208;80;25688;-61
2021/08/14 03:42:08;;;;;;;12.13;9.18;;;;;;;17.03;71.08;100550.09;1779393;80;28148;-61
2021/08/14 03:44:34;;;;;;;13.25;9.20;;;;;;;17.02;71.19;100550.43;1756844;80;25816;-61
2021/08/14 03:47:01;;;;;;;12.18;9.35;;;;;;;17.00;71.27;100549.41;1779196;80;25706;-62
2021/08/14 03:49:27;;;;;;;12.70;8.53;;;;;;;16.99;71.25;100551.35;1779177;80;25737;-61
2021/08/14 03:51:53;;;;;;;12.43;9.30;;;;;;;17.00;71.31;100538.48;1779348;80;25651;-61
2021/08/14 03:54:19;;;;;;;14.25;10.05;;;;;;;16.99;71.29;100545.07;1779196;80;27320;-61
2021/08/14 03:56:46;;;;;;;11.93;9.28;;;;;;;17.01;71.37;100542.00;1779235;80;25760;-61
2021/08/14 03:59:12;;;;;;;9.95;8.90;;;;;;;17.01;71.37;100538.71;1779215;80;25725;-61
2021/08/14 04:01:39;;;;;;;15.23;10.00;;;;;;;17.03;71.51;100536.42;1784921;80;26246;-61
2021/08/14 04:04:05;;;;;;;14.23;9.23;;;;;;;17.04;71.54;100539.36;1818333;78;25735;-63
2021/08/14 04:06:32;;;;;;;14.25;9.90;;;;;;;17.06;71.92;100544.48;1818577;78;28180;-64
2021/08/14 04:08:58;;;;;;;11.97;9.78;;;;;;;17.05;72.02;100538.23;1818286;78;25654;-64
2021/08/14 04:11:24;;;;;;;12.10;10.08;;;;;;;17.08;71.70;100549.84;1818403;78;26282;-64
2021/08/14 04:13:54;;;;;;;12.60;9.70;;;;;;;17.10;71.85;100550.86;1818352;78;25996;-64
2021/08/14 04:16:22;;;;;;;13.05;9.80;;;;;;;17.12;71.82;100554.04;1818385;78;26333;-64
2021/08/14 04:18:48;;;;;;;16.35;10.10;;;;;;;17.16;71.90;100552.19;1779484;80;28085;-64
2021/08/14 04:21:15;;;;;;;10.63;9.53;;;;;;;17.19;71.88;100546.03;1756796;80;25807;-64
2021/08/14 04:23:41;;;;;;;10.48;8.83;;;;;;;17.22;71.97;100555.49;1784950;79;25701;-64
2021/08/14 04:26:08;;;;;;;11.18;9.93;;;;;;;17.25;71.97;100552.07;1819533;78;25688;-64
2021/08/14 04:28:35;;;;;;;11.73;9.23;;;;;;;17.28;71.99;100549.98;1761191;80;26390;-64
2021/08/14 04:31:02;;;;;;;11.22;9.35;;;;;;;17.31;71.95;100552.03;1823214;78;27303;-64
2021/08/14 04:33:29;;;;;;;12.98;9.68;;;;;;;17.34;72.05;100551.34;1823766;78;26396;-64
2021/08/14 04:35:55;;;;;;;12.55;10.25;;;;;;;17.36;72.16;100547.09;1823883;78;26310;-63
2021/08/14 04:38:22;;;;;;;11.93;9.40;;;;;;;17.40;72.18;100544.48;1823829;78;26302;-63
2021/08/14 04:40:50;;;;;;;13.43;10.00;;;;;;;17.43;72.22;100548.45;1823868;78;25655;-63
2021/08/14 04:43:16;;;;;;;14.18;10.50;;;;;;;17.47;72.63;100550.69;1823791;78;27408;-63
2021/08/14 04:45:42;;;;;;;12.33;9.38;;;;;;;17.53;72.32;100550.09;1823673;78;26379;-63
2021/08/14 04:48:08;;;;;;;15.85;9.93;;;;;;;17.59;72.51;100549.28;1823893;78;25672;-63
2021/08/14 04:50:35;;;;;;;12.55;10.70;;;;;;;17.65;72.28;100546.50;1789845;78;25815;-63
2021/08/14 04:53:01;;;;;;;14.10;10.70;;;;;;;17.73;72.38;100551.02;1823821;78;25790;-63
2021/08/14 04:55:29;;;;;;;11.05;9.50;;;;;;;17.81;72.31;100553.93;1789705;78;27297;-63
2021/08/14 04:57:55;;;;;;;12.70;10.23;;;;;;;17.88;72.26;100561.00;1823817;77;25695;-63
2021/08/14 05:00:22;;;;;;;14.65;10.03;;;;;;;17.94;72.18;100556.84;1823903;78;25718;-63
2021/08/14 05:02:49;;;;;;;16.35;11.12;;;;;;;18.02;72.15;100556.46;1823805;78;25679;-63
2021/08/14 05:05:15;;;;;;;16.00;10.72;;;;;;;18.08;72.08;100546.82;1823756;78;25693;-64
2021/08/14 05:07:42;;;;;;;13.20;9.88;;;;;;;18.15;72.10;100549.75;1823836;78;27412;-63
2021/08/14 05:10:13;;;;;;;14.25;10.75;;;;;;;18.22;72.18;100547.77;1823699;78;25869;-63
2021/08/14 05:12:39;;;;;;;12.65;10.35;;;;;;;18.34;72.32;100550.40;1823925;78;25682;-63
2021/08/14 05:15:07;;;;;;;11.75;10.38;;;;;;;18.45;72.41;100557.48;1823658;78;25751;-64
2021/08/14 05:17:34;;;;;;;12.25;10.35;;;;;;;18.59;72.47;100559.20;1789984;78;25719;-63
2021/08/14 05:20:00;;;;;;;14.83;10.63;;;;;;;18.78;72.26;100563.10;1788352;78;27497;-63
2021/08/14 05:22:27;;;;;;;14.03;10.95;;;;;;;18.93;72.07;100557.39;1819873;78;25687;-63
2021/08/14 05:24:53;;;;;;;16.32;10.78;;;;;;;19.06;71.65;100556.10;1820072;78;25714;-63
2021/08/14 05:27:19;;;;;;;13.32;10.90;;;;;;;19.18;71.31;100555.17;1812502;78;25775;-63
2021/08/14 05:29:45;;;;;;;15.18;11.12;;;;;;;19.31;71.00;100554.45;1807201;79;25666;-63
2021/08/14 05:32:13;;;;;;;17.27;10.15;;;;;;;19.40;70.76;100550.31;1808441;79;27298;-62
2021/08/14 05:34:39;;;;;;;16.32;10.65;;;;;;;19.49;70.41;100550.08;1809049;79;25575;-62
2021/08/14 05:37:06;;;;;;;14.90;10.25;;;;;;;19.56;70.25;100547.50;1738681;82;25501;-60
2021/08/14 05:39:32;;;;;;;20.23;11.28;;;;;;;19.66;70.07;100553.53;1746140;82;25816;-64
2021/08/14 05:41:58;;;;;;;12.82;10.53;;;;;;;19.73;70.04;100547.61;1772700;80;25838;-64
2021/08/14 05:44:25;;;;;;;14.85;10.88;;;;;;;19.86;70.00;100551.56;1772607;80;27526;-64
2021/08/14 05:46:51;;;;;;;12.53;10.35;;;;;;;19.94;69.63;100548.57;1772794;80;26153;-64
2021/08/14 05:49:17;;;;;;;13.65;10.68;;;;;;;20.03;69.70;100548.91;1772675;80;26423;-64
2021/08/14 05:51:43;;;;;;;16.57;10.50;;;;;;;20.11;69.26;100547.28;1772555;80;25795;-64
2021/08/14 05:54:09;;;;;;;19.12;10.40;;;;;;;20.21;69.30;100542.31;1772775;80;25728;-64
2021/08/14 05:56:36;;;;;;;13.48;11.08;;;;;;;20.29;68.99;100543.42;1772786;80;27220;-64
2021/08/14 05:59:03;;;;;;;17.80;10.43;;;;;;;20.33;68.59;100549.78;1772454;80;26297;-64
2021/08/14 06:01:30;;;;;;;12.98;10.28;;;;;;;20.38;68.73;100551.44;1787064;79;25676;-64
2021/08/14 06:03:56;;;;;;;14.75;10.63;;;;;;;20.47;68.72;100556.66;1807980;79;25713;-64
2021/08/14 06:06:22;;;;;;;12.45;10.68;;;;;;;20.53;68.58;100546.36;1807254;79;25670;-64
2021/08/14 06:08:49;;;;;;;16.30;10.55;;;;;;;20.62;68.62;100543.37;1803390;79;28090;-64
2021/08/14 06:11:15;;;;;;;15.15;10.72;;;;;;;20.74;68.55;100544.29;1808268;79;26014;-64
2021/08/14 06:13:43;;;;;;;17.48;10.88;;;;;;;20.81;68.05;100554.81;1808181;79;25704;-64
2021/08/14 06:16:14;;;;;;;15.38;11.30;;;;;;;20.87;67.99;100553.33;1808215;79;27719;-64
2021/08/14 06:18:41;;;;;;;11.63;10.03;;;;;;;20.97;68.07;100557.36;1808557;79;25718;-61
2021/08/14 06:21:10;;;;;;;12.75;10.90;;;;;;;21.07;67.73;100554.55;1808194;79;27374;-61
2021/08/14 06:23:36;;;;;;;12.80;11.50;;;;;;;21.13;67.82;100558.56;1808013;79;25864;-61
2021/08/14 06:26:03;;;;;;;13.03;10.95;;;;;;;21.22;67.59;100555.52;1808334;79;25771;-61
2021/08/14 06:28:29;;;;;;;17.48;11.68;;;;;;;21.23;67.17;100553.77;1808048;79;26383;-62
2021/08/14 06:30:56;;;;;;;15.83;10.98;;;;;;;21.26;67.03;100560.47;1808452;79;25732;-61
2021/08/14 06:33:22;;;;;;;11.80;10.48;;;;;;;21.27;67.06;100566.97;1808202;79;27362;-61
2021/08/14 06:35:48;;;;;;;16.77;11.30;;;;;;;21.37;67.19;100566.89;1721835;81;26473;-61
2021/08/14 06:38:15;;;;;;;14.55;11.30;;;;;;;21.51;67.56;100573.76;1808319;79;25897;-61
2021/08/14 06:40:41;;;;;;;15.85;10.95;;;;;;;21.73;67.57;100568.67;1807577;79;25855;-61
2021/08/14 06:43:08;;;;;;;12.33;10.93;;;;;;;21.93;66.84;100570.63;1808145;79;25631;-61
2021/08/14 06:45:34;;;;;;;19.92;11.88;;;;;;;22.08;66.81;100567.98;1807901;79;29610;-61
2021/08/14 06:48:01;;;;;;;14.45;10.53;;;;;;;22.25;66.10;100564.58;1807731;79;25664;-61
2021/08/14 06:50:28;;;;;;;13.78;10.78;;;;;;;22.47;66.42;100563.39;1807565;79;25741;-65
2021/08/14 06:52:54;;;;;;;14.80;10.65;;;;;;;22.70;66.00;100560.39;1806866;79;26562;-65
2021/08/14 06:55:21;;;;;;;14.33;10.23;;;;;;;22.98;65.58;100558.35;1808353;79;25734;-65
2021/08/14 06:57:47;;;;;;;14.38;10.48;;;;;;;23.21;65.26;100562.83;1775553;79;27499;-65
2021/08/14 07:00:16;;;;;;;15.80;10.35;;;;;;;23.41;64.51;100559.94;1808076;79;25737;-65
2021/08/14 07:02:42;;;;;;;11.75;10.40;;;;;;;23.56;63.74;100558.58;1808291;79;26487;-65
2021/08/14 07:05:11;;;;;;;15.03;10.95;;;;;;;23.62;63.20;100560.56;1775533;79;25755;-65
2021/08/14 07:07:37;;;;;;;17.83;11.47;;;;;;;23.69;62.97;100558.41;1808258;79;25737;-65
2021/08/14 07:10:07;;;;;;;17.27;10.85;;;;;;;23.75;63.08;100542.23;1807663;79;27288;-65
2021/08/14 07:12:33;;;;;;;14.18;10.80;;;;;;;24.02;63.71;100550.95;1807650;79;25617;-65
2021/08/14 07:15:00;;;;;;;14.25;10.82;;;;;;;24.36;62.87;100550.53;1808071;79;25693;-65
2021/08/14 07:17:27;;;;;;;15.60;10.70;;;;;;;24.47;61.84;100550.51;1808075;79;26344;-65
2021/08/14 07:19:53;;;;;;;15.65;10.72;;;;;;;24.67;61.18;100557.23;1807338;79;25827;-65
2021/08/14 07:22:20;;;;;;;11.83;9.88;;;;;;;24.89;61.44;100551.04;1808383;79;29502;-65
2021/08/14 07:24:46;;;;;;;16.20;10.40;;;;;;;25.14;60.99;100549.53;1769507;81;25857;-65
2021/08/14 07:27:12;;;;;;;19.23;11.60;;;;;;;25.31;59.80;100550.66;1777155;79;25632;-65
2021/08/14 07:29:39;;;;;;;13.08;10.63;;;;;;;25.44;59.58;100548.23;1810858;78;25835;-61
2021/08/14 07:32:06;;;;;;;12.70;10.70;;;;;;;25.63;58.68;100547.52;1777513;79;26284;-61
2021/08/14 07:34:32;;;;;;;14.53;10.48;;;;;;;25.64;58.58;100539.38;1810890;79;27313;-61
2021/08/14 07:36:59;;;;;;;15.75;10.45;;;;;;;25.64;58.41;100544.34;1810923;79;25614;-61
2021/08/14 07:39:25;;;;;;;18.48;10.55;;;;;;;25.68;58.55;100548.47;1810975;79;25766;-61
2021/08/14 07:41:52;;;;;;;12.13;10.15;;;;;;;25.82;58.89;100544.20;1810830;79;25773;-61
2021/08/14 07:44:18;;;;;;;14.38;10.60;;;;;;;26.09;59.03;100550.55;1810984;79;26348;-61
2021/08/14 07:46:47;;;;;;;12.00;10.10;;;;;;;26.32;58.22;100544.38;1811420;79;25786;-61
2021/08/14 07:49:14;;;;;;;14.35;12.00;;;;;;;26.41;57.63;100544.70;1810695;79;25682;-61
2021/08/14 07:51:41;;;;;;;19.50;10.30;;;;;;;26.45;57.35;100544.66;1811029;79;25791;-62
2021/08/14 07:54:08;;;;;;;15.10;10.43;;;;;;;26.58;57.00;100541.55;1810970;79;25676;-62
2021/08/14 07:56:35;;;;;;;13.58;10.48;;;;;;;26.65;56.79;100542.11;1810812;79;25663;-62
2021/08/14 07:59:03;;;;;;;12.37;10.20;;;;;;;26.74;56.26;100546.55;1810909;79;27383;-62
2021/08/14 08:01:30;;;;;;;;;;;;;;;26.75;56.11;100548.13;1813621;78;25677;-62
2021/08/14 08:03:57;;;;;;;13.22;10.40;;;;;;;26.87;56.29;100546.00;1810832;79;25708;-62
2021/08/14 08:06:23;;;;;;;12.23;10.35;;;;;;;27.04;56.63;100542.23;1810870;79;26266;-62
2021/08/14 08:08:50;;;;;;;11.18;9.98;;;;;;;27.18;56.10;100543.42;1786258;80;26417;-64
2021/08/14 08:11:16;;;;;;;16.48;11.43;;;;;;;27.34;55.97;100536.50;1810755;79;28000;-62
2021/08/14 08:13:43;;;;;;;11.33;10.10;;;;;;;27.64;56.55;100541.83;1810908;79;25795;-62
2021/08/14 08:16:09;;;;;;;18.27;10.43;;;;;;;28.08;56.43;100539.34;1810936;79;25618;-62
2021/08/14 08:18:37;;;;;;;14.43;10.95;;;;;;;28.55;55.99;100541.28;1810718;79;25731;-62
2021/08/14 08:21:04;;;;;;;14.83;10.63;;;;;;;28.92;54.48;100538.59;1810963;79;25705;-62
2021/08/14 08:23:31;;;;;;;10.58;9.43;;;;;;;29.15;53.54;100539.08;1786169;79;27302;-62
2021/08/14 08:25:57;;;;;;;15.20;10.13;;;;;;;29.49;53.20;100544.33;1810571;79;25804;-62
2021/08/14 08:28:23;;;;;;;13.65;10.58;;;;;;;29.87;52.72;100539.66;1802444;79;25713;-62
2021/08/14 08:30:50;;;;;;;12.23;9.90;;;;;;;30.07;51.73;100546.53;1783699;80;26375;-64
2021/08/14 08:33:17;;;;;;;10.55;9.38;;;;;;;30.28;51.25;100534.64;1822790;78;25719;-63
2021/08/14 08:35:44;;;;;;;13.10;10.72;;;;;;;30.68;51.44;100538.55;1823589;78;26992;-63
2021/08/14 08:38:11;;;;;;;12.47;10.15;;;;;;;30.91;49.81;100542.45;1824332;78;25743;-64
2021/08/14 08:40:41;;;;;;;13.08;11.10;;;;;;;31.03;48.58;100541.57;1824399;78;26413;-63
2021/08/14 08:43:08;;;;;;;12.23;9.38;;;;;;;31.14;48.96;100537.82;1823868;78;25731;-63
2021/08/14 08:45:35;;;;;;;11.65;9.38;;;;;;;31.42;49.19;100539.59;1823604;78;25705;-63
2021/08/14 08:48:04;;;;;;;12.68;8.85;;;;;;;31.61;48.51;100545.57;1823418;78;27311;-63
2021/08/14 08:50:33;;;;;;;12.10;9.58;;;;;;;31.56;47.48;100543.34;1823588;78;25728;-64
2021/08/14 08:53:01;;;;;;;10.80;9.48;;;;;;;31.61;47.44;100544.17;1823733;78;25701;-63
2021/08/14 08:55:28;;;;;;;14.28;10.08;;;;;;;31.74;47.59;100537.77;1823277;78;27841;-63
2021/08/14 08:57:57;;;;;;;13.28;9.93;;;;;;;31.97;47.61;100537.39;1823550;78;25713;-63
2021/08/14 09:00:24;;;;;;;11.30;10.10;;;;;;;32.24;47.14;100537.52;1823697;78;27338;-62
2021/08/14 09:03:10;;;;;;;12.07;9.48;;;;;;;32.25;46.60;100532.09;1823281;78;25692;-64
2021/08/14 09:05:49;;;;;;;10.55;9.38;;;;;;;32.53;46.96;100535.10;1782085;79;25846;-64
2021/08/14 09:08:17;;;;;;;12.05;9.80;;;;;;;32.90;45.87;100530.55;1781905;79;25724;-65
2021/08/14 09:10:44;;;;;;;13.25;9.50;;;;;;;32.70;44.91;100530.89;1781895;80;25721;-62
2021/08/14 09:13:17;;;;;;;14.80;10.25;;;;;;;32.79;45.33;100536.39;1782220;79;27551;-75
2021/08/14 09:15:44;;;;;;;12.23;9.33;;;;;;;32.61;44.83;100533.64;1782066;80;26513;-66
2021/08/14 09:18:14;;;;;;;12.33;10.10;;;;;;;32.54;45.36;100525.48;1781883;80;25646;-70
2021/08/14 09:20:51;;;;;;;13.05;9.65;;;;;;;32.74;45.63;100537.75;1782090;80;26109;-70
2021/08/14 09:23:17;;;;;;;13.68;10.55;;;;;;;32.97;45.83;100519.70;1781972;80;25677;-69
2021/08/14 09:25:48;;;;;;;13.93;10.65;;;;;;;33.11;44.55;100532.36;1781904;80;27466;-69
2021/08/14 09:28:20;;;;;;;18.42;9.63;;;;;;;32.69;44.25;100541.95;1776728;80;25800;-69
2021/08/14 09:30:54;;;;;;;14.83;9.40;;;;;;;32.53;45.15;100535.10;1768211;81;25856;-70
2021/08/14 09:33:24;;;;;;;13.88;10.58;;;;;;;32.56;45.80;100531.40;1770246;81;25756;-70
2021/08/14 09:35:59;;;;;;;11.33;10.15;;;;;;;32.78;44.98;100537.62;1770201;81;25860;-67
2021/08/14 09:38:49;;;;;;;11.38;9.38;;;;;;;32.68;44.64;100527.00;1769605;80;28228;-67
2021/08/14 09:41:19;;;;;;;14.80;10.95;;;;;;;32.74;45.14;100532.95;1786856;79;25771;-67
2021/08/14 09:43:51;;;;;;;11.38;10.23;;;;;;;32.64;45.22;100532.73;1815430;78;25657;-67
2021/08/14 09:46:19;;;;;;;12.05;9.50;;;;;;;32.56;45.00;100527.97;1815384;79;25706;-67
2021/08/14 09:48:55;;;;;;;11.43;10.05;;;;;;;32.65;45.37;100520.28;1815493;79;25674;-67
2021/08/14 09:51:32;;;;;;;14.05;9.55;;;;;;;32.75;44.91;100526.72;1815255;79;27303;-67
2021/08/14 09:54:03;;;;;;;11.28;10.13;;;;;;;32.88;45.14;100524.63;1815412;79;25679;-67
2021/08/14 09:56:37;;;;;;;11.95;10.30;;;;;;;33.05;44.80;100527.98;1815502;79;25690;-67
2021/08/14 09:59:06;;;;;;;18.12;11.22;;;;;;;33.15;44.16;100521.81;1815479;79;25767;-66
2021/08/14 10:01:38;;;;;;;15.23;10.23;;;;;;;33.17;43.73;100519.95;1815413;78;25623;-67
2021/08/14 10:04:06;;;;;;;13.00;10.80;;;;;;;32.99;43.74;100510.83;1807802;79;27299;-66
2021/08/14 10:06:34;;;;;;;11.88;10.68;;;;;;;32.81;43.74;100517.91;1815459;79;26359;-66
2021/08/14 10:09:00;;;;;;;14.18;10.53;;;;;;;32.89;44.27;100510.77;1815586;79;25627;-66
2021/08/14 10:11:26;;;;;;;13.15;11.08;;;;;;;33.11;44.70;100507.92;1815289;79;25677;-68
2021/08/14 10:13:53;;;;;;;14.40;11.03;;;;;;;33.60;44.03;100535.08;1815502;79;25626;-65
2021/08/14 10:16:19;;;;;;;13.62;10.82;;;;;;;33.60;44.03;100535.08;1815213;79;27606;-71
2021/08/14 10:18:46;;;;;;;13.20;10.03;;;;;;;33.59;41.74;100517.45;1815367;79;25746;-62
2021/08/14 10:21:15;;;;;;;11.88;9.90;;;;;;;33.53;42.55;100516.52;1815590;78;25895;-62
2021/08/14 10:23:44;;;;;;;18.67;10.70;;;;;;;33.53;42.55;100516.52;1815279;78;25706;-65
2021/08/14 10:26:15;;;;;;;13.50;11.18;;;;;;;33.60;43.24;100509.20;1815151;78;25736;-62
2021/08/14 10:28:53;;;;;;;13.45;9.70;;;;;;;33.64;42.27;100503.45;1781634;78;27982;-61
2021/08/14 10:31:41;;;;;;;13.55;10.63;;;;;;;33.56;41.44;100502.18;1819847;78;25664;-62
2021/08/14 10:34:18;;;;;;;14.20;10.15;;;;;;;33.50;42.00;100503.42;1819893;78;25684;-62
2021/08/14 10:36:46;;;;;;;16.35;10.20;;;;;;;33.56;40.22;100504.38;1781778;79;25762;-62
2021/08/14 10:39:19;;;;;;;16.10;11.00;;;;;;;33.71;41.64;100520.00;1808053;79;25688;-62
2021/08/14 10:41:50;;;;;;;13.20;10.38;;;;;;;33.85;42.23;100500.38;1808159;79;27960;-62
2021/08/14 10:44:46;;;;;;;13.18;9.70;;;;;;;34.37;41.93;100504.80;1783491;80;27164;-61
2021/08/14 10:47:40;;;;;;;10.85;9.75;;;;;;;34.75;41.63;100501.49;1807026;79;25654;-61
2021/08/14 10:50:06;;;;;;;13.08;9.15;;;;;;;35.01;39.81;100501.09;1776827;79;25737;-61
2021/08/14 10:52:37;;;;;;;12.93;10.10;;;;;;;34.99;39.40;100489.52;1820325;78;25764;-61
2021/08/14 10:55:13;;;;;;;10.50;9.43;;;;;;;35.21;39.26;100487.87;1819999;78;27223;-61
2021/08/14 10:57:47;;;;;;;12.98;9.65;;;;;;;35.43;38.98;100482.00;1820337;78;25771;-61
2021/08/14 11:00:21;;;;;;;13.22;9.48;;;;;;;35.66;37.73;100481.09;1819828;78;25673;-61
2021/08/14 11:03:05;;;;;;;13.22;9.53;;;;;;;35.99;37.64;100481.66;1820231;78;25687;-61
2021/08/14 11:05:32;;;;;;;13.60;8.23;;;;;;;36.13;36.54;100484.34;1820335;78;25755;-61
2021/08/14 11:08:02;;;;;;;11.57;9.33;;;;;;;36.07;36.06;100485.02;1820082;78;27126;-61
2021/08/14 11:10:40;;;;;;;14.40;9.95;;;;;;;35.88;35.18;100485.80;1820139;78;25673;-61
2021/08/14 11:13:38;;;;;;;14.03;9.60;;;;;;;35.56;35.46;100475.38;1820425;78;25723;-61
2021/08/14 11:16:04;;;;;;;;;;;;;;;35.50;35.65;100478.05;1822800;78;25880;-61
2021/08/14 11:18:56;;;;;;;12.13;9.25;;;;;;;35.51;36.11;100490.23;1820344;78;25748;-61